Cedar Island, North Carolina
Current Conditions -  °F | °C
As of 8:56 AM on Thursday 27 Nov 2014 (Local Time) from KNBT Reporting Station
Scattered Clouds Scattered Clouds  
Wind Chill: 50°   Ceiling: Unl
Heat Index: 50°   Visibility: NA
Dew Point: 43°   Wind: 5mph
Humidity: 77%   Direction: 100°E
Pressure: 30.04"   Gusts: NA
Location:  35.01°N, 76.32°W
Report Text: KNBT 271356Z AUTO 10004KT FEW095 SCT110 10/06 A3004 RMK AO2 SLP178 T01000061 PNO
Loading
Personal Weather Stations






























Interactive Weather Map New forecast layout! Learn more

10-Day Weather Forecast

Advertisements
Track Severe Weather on mobile